createdAt,value
2023-07-24T00:00:53.167Z,94.03
2023-07-24T00:03:21.073Z,93.97
2023-07-24T00:05:49.320Z,94.09
2023-07-24T00:08:18.032Z,94.12
2023-07-24T00:10:46.214Z,94.40
2023-07-24T00:13:14.008Z,94.50
2023-07-24T00:15:41.841Z,94.78
2023-07-24T00:18:09.942Z,94.85
2023-07-24T00:20:37.943Z,94.79
2023-07-24T00:23:05.727Z,94.78
2023-07-24T00:25:33.640Z,94.94
2023-07-24T00:28:01.820Z,95.05
2023-07-24T00:30:29.666Z,94.80
2023-07-24T00:32:57.581Z,95.34
2023-07-24T00:35:26.647Z,95.79
2023-07-24T00:37:54.602Z,95.41
2023-07-24T00:40:22.510Z,95.95
2023-07-24T00:42:50.597Z,95.39
2023-07-24T00:45:18.953Z,95.64
2023-07-24T00:47:47.675Z,95.65
2023-07-24T00:50:16.437Z,95.98
2023-07-24T00:52:44.972Z,95.98
2023-07-24T00:55:17.609Z,95.92
2023-07-24T00:57:46.326Z,95.99
2023-07-24T01:00:15.183Z,96.05
2023-07-24T01:02:44.815Z,95.93
2023-07-24T01:05:16.453Z,95.88
2023-07-24T01:07:44.715Z,95.91
2023-07-24T01:10:13.560Z,96.05
2023-07-24T01:13:02.887Z,96.13
2023-07-24T01:15:49.982Z,96.00
2023-07-24T01:18:23.080Z,96.00
2023-07-24T01:21:01.660Z,96.14
2023-07-24T01:24:03.923Z,96.16
2023-07-24T01:26:33.775Z,96.30
2023-07-24T01:29:01.774Z,96.26
2023-07-24T01:31:29.555Z,96.12
2023-07-24T01:33:57.531Z,96.16
2023-07-24T01:36:26.099Z,96.04
2023-07-24T01:38:55.429Z,95.99
2023-07-24T01:41:24.618Z,95.99
2023-07-24T01:43:52.551Z,96.00
2023-07-24T01:46:20.425Z,96.06
2023-07-24T01:48:48.553Z,95.99
2023-07-24T01:51:16.905Z,96.16
2023-07-24T01:53:44.842Z,95.99
2023-07-24T01:56:12.683Z,96.08
2023-07-24T01:58:40.639Z,96.14
2023-07-24T02:01:08.392Z,96.31
2023-07-24T02:03:36.668Z,96.27
2023-07-24T02:06:04.727Z,96.19
2023-07-24T02:08:33.151Z,96.17
2023-07-24T02:11:01.086Z,96.11
2023-07-24T02:13:29.010Z,95.98
2023-07-24T02:16:00.228Z,96.08
2023-07-24T02:18:30.766Z,96.30
2023-07-24T02:21:02.094Z,96.30
2023-07-24T02:23:32.560Z,96.36
2023-07-24T02:26:00.958Z,96.38
2023-07-24T02:28:28.885Z,96.37
2023-07-24T02:30:57.890Z,96.30
2023-07-24T02:33:27.889Z,96.33
2023-07-24T02:35:55.866Z,96.21
2023-07-24T02:38:23.646Z,96.14
2023-07-24T02:40:51.612Z,95.97
2023-07-24T02:43:19.390Z,95.85
2023-07-24T02:45:47.377Z,96.00
2023-07-24T02:48:15.507Z,96.07
2023-07-24T02:50:43.489Z,95.91
2023-07-24T02:53:11.977Z,95.95
2023-07-24T02:55:44.904Z,96.00
2023-07-24T02:58:16.405Z,95.94
2023-07-24T03:00:45.416Z,95.78
2023-07-24T03:03:13.152Z,95.80
2023-07-24T03:05:41.168Z,95.84
2023-07-24T03:08:08.893Z,95.57
2023-07-24T03:10:36.827Z,95.50
2023-07-24T03:13:04.597Z,95.21
2023-07-24T03:15:32.587Z,95.35
2023-07-24T03:18:00.414Z,95.01
2023-07-24T03:20:28.334Z,95.25
2023-07-24T03:22:56.340Z,95.14
2023-07-24T03:25:24.638Z,95.32
2023-07-24T03:27:52.377Z,95.32
2023-07-24T03:30:21.720Z,95.38
2023-07-24T03:32:49.716Z,95.31
2023-07-24T03:35:18.238Z,95.30
2023-07-24T03:37:46.099Z,95.03
2023-07-24T03:40:15.168Z,95.07
2023-07-24T03:42:43.716Z,94.98
2023-07-24T03:45:12.142Z,95.07
2023-07-24T03:47:42.178Z,95.09
2023-07-24T03:50:11.429Z,94.99
2023-07-24T03:52:39.454Z,95.22
2023-07-24T03:55:09.330Z,95.38
2023-07-24T03:57:38.002Z,95.51
2023-07-24T04:00:08.525Z,95.60
2023-07-24T04:02:42.795Z,95.65
2023-07-24T04:05:10.668Z,95.59
2023-07-24T04:07:38.695Z,95.80
2023-07-24T04:10:08.505Z,95.88
2023-07-24T04:12:36.343Z,95.75
2023-07-24T04:15:04.748Z,95.76
2023-07-24T04:17:33.740Z,95.97
2023-07-24T04:20:01.615Z,96.07
2023-07-24T04:22:29.608Z,96.16
2023-07-24T04:24:57.423Z,96.25
2023-07-24T04:27:25.344Z,96.36
2023-07-24T04:29:53.125Z,96.32
2023-07-24T04:32:21.372Z,96.43
2023-07-24T04:34:49.152Z,96.47
2023-07-24T04:37:16.962Z,96.52
2023-07-24T04:39:44.853Z,96.47
2023-07-24T04:42:13.835Z,96.46
2023-07-24T04:44:41.650Z,96.42
2023-07-24T04:47:09.761Z,96.48
2023-07-24T04:49:38.001Z,96.52
2023-07-24T04:52:06.898Z,96.39
2023-07-24T04:54:35.132Z,96.52
2023-07-24T04:57:02.815Z,96.46
2023-07-24T04:59:30.654Z,96.57
2023-07-24T05:01:58.524Z,96.68
2023-07-24T05:04:26.575Z,96.75
2023-07-24T05:06:54.530Z,96.64
2023-07-24T05:09:22.715Z,96.56
2023-07-24T05:11:50.942Z,96.39
2023-07-24T05:14:18.743Z,96.38
2023-07-24T05:16:46.784Z,96.43
2023-07-24T05:19:14.586Z,96.37
2023-07-24T05:21:42.552Z,96.04
2023-07-24T05:24:10.194Z,96.20
2023-07-24T05:26:38.188Z,96.07
2023-07-24T05:29:06.169Z,96.27
2023-07-24T05:31:37.485Z,96.42
2023-07-24T05:34:06.394Z,96.28
2023-07-24T05:36:34.331Z,96.10
2023-07-24T05:39:02.393Z,96.19
2023-07-24T05:41:30.297Z,95.83
2023-07-24T05:43:58.043Z,95.98
2023-07-24T05:46:26.107Z,95.96
2023-07-24T05:48:54.175Z,95.76
2023-07-24T05:51:21.880Z,95.46
2023-07-24T05:53:49.707Z,94.76
2023-07-24T05:56:17.581Z,94.89
2023-07-24T05:58:45.325Z,94.56
2023-07-24T06:01:13.436Z,94.51
2023-07-24T06:03:41.297Z,94.55
2023-07-24T06:06:09.458Z,94.09
2023-07-24T06:08:37.459Z,94.03
2023-07-24T06:11:06.610Z,93.18
2023-07-24T06:13:34.350Z,93.02
2023-07-24T06:16:02.399Z,91.82
2023-07-24T06:18:30.430Z,90.13
2023-07-24T06:20:58.403Z,89.42
2023-07-24T06:23:26.376Z,90.21
2023-07-24T06:25:54.823Z,90.38
2023-07-24T06:28:22.862Z,91.01
2023-07-24T06:30:55.383Z,91.17
2023-07-24T06:33:23.416Z,91.40
2023-07-24T06:35:53.734Z,91.93
2023-07-24T06:38:22.854Z,91.96
2023-07-24T06:40:51.696Z,91.85
2023-07-24T06:43:19.636Z,91.78
2023-07-24T06:45:47.560Z,91.45
2023-07-24T06:48:15.397Z,91.32
2023-07-24T06:50:43.400Z,91.01
2023-07-24T06:53:12.624Z,90.25
2023-07-24T06:55:40.816Z,89.82
2023-07-24T06:58:08.959Z,88.77
2023-07-24T07:00:36.774Z,88.52
2023-07-24T07:03:05.011Z,89.27
2023-07-24T07:05:34.354Z,89.20
2023-07-24T07:08:02.343Z,89.75
2023-07-24T07:10:32.455Z,90.62
2023-07-24T07:13:00.394Z,92.06
2023-07-24T07:15:28.181Z,92.88
2023-07-24T07:17:56.889Z,93.71
2023-07-24T07:20:25.521Z,93.73
2023-07-24T07:22:53.502Z,93.85
2023-07-24T07:25:21.491Z,94.38
2023-07-24T07:27:49.451Z,94.65
2023-07-24T07:30:17.734Z,94.46
2023-07-24T07:32:45.799Z,94.36
2023-07-24T07:35:13.748Z,94.70
2023-07-24T07:37:41.631Z,94.84
2023-07-24T07:40:10.360Z,93.95
2023-07-24T07:42:39.866Z,94.38
2023-07-24T07:45:09.437Z,93.73
2023-07-24T07:47:38.138Z,93.06
2023-07-24T07:50:06.945Z,92.65
2023-07-24T07:52:34.894Z,92.06
2023-07-24T07:55:03.066Z,91.88
2023-07-24T07:57:30.979Z,90.11
2023-07-24T07:59:58.809Z,89.45
2023-07-24T08:02:26.749Z,87.42
2023-07-24T08:04:54.814Z,87.53
2023-07-24T08:07:22.596Z,85.17
2023-07-24T08:09:51.007Z,83.79
2023-07-24T08:12:19.181Z,84.20
2023-07-24T08:14:47.322Z,84.80
2023-07-24T08:17:15.246Z,88.52
2023-07-24T08:19:43.295Z,87.35
2023-07-24T08:22:13.530Z,84.87
2023-07-24T08:24:41.687Z,84.42
2023-07-24T08:27:10.237Z,86.96
2023-07-24T08:29:39.152Z,87.41
2023-07-24T08:32:08.150Z,87.50
2023-07-24T08:34:35.996Z,87.89
2023-07-24T08:37:04.065Z,88.28
2023-07-24T08:39:33.079Z,87.64
2023-07-24T08:42:01.577Z,87.51
2023-07-24T08:44:32.409Z,87.72
2023-07-24T08:47:01.940Z,86.01
2023-07-24T08:49:32.473Z,86.21
2023-07-24T08:52:02.759Z,83.06
2023-07-24T08:54:33.823Z,78.99
2023-07-24T08:57:03.751Z,72.40
2023-07-24T08:59:31.618Z,73.58
2023-07-24T09:01:59.536Z,70.73
2023-07-24T09:04:27.884Z,69.84
2023-07-24T09:06:59.641Z,68.99
2023-07-24T09:09:33.105Z,65.59
2023-07-24T09:12:01.463Z,67.29
2023-07-24T09:14:32.857Z,67.63
2023-07-24T09:17:11.484Z,66.87
2023-07-24T09:19:40.816Z,69.95
2023-07-24T09:22:15.972Z,70.26
2023-07-24T09:24:59.245Z,72.40
2023-07-24T09:27:32.102Z,72.79
2023-07-24T09:30:01.063Z,76.23
2023-07-24T09:32:32.215Z,78.46
2023-07-24T09:35:00.152Z,80.45
2023-07-24T09:37:36.736Z,80.77
2023-07-24T09:40:08.679Z,82.04
2023-07-24T09:42:58.413Z,83.89
2023-07-24T09:45:30.072Z,84.99
2023-07-24T09:48:06.324Z,86.31
2023-07-24T09:50:37.619Z,83.55
2023-07-24T09:53:14.567Z,82.44
2023-07-24T09:56:06.119Z,78.82
2023-07-24T09:58:42.137Z,81.16
2023-07-24T10:01:12.447Z,80.18
2023-07-24T10:03:51.048Z,80.93
2023-07-24T10:06:19.531Z,79.52
2023-07-24T10:08:49.491Z,77.71
2023-07-24T10:11:17.733Z,76.17
2023-07-24T10:13:47.618Z,75.53
2023-07-24T10:16:15.751Z,73.85
2023-07-24T10:18:48.182Z,72.67
2023-07-24T10:21:16.223Z,71.78
2023-07-24T10:23:50.222Z,71.24
2023-07-24T10:26:18.287Z,72.06
2023-07-24T10:28:50.292Z,73.03
2023-07-24T10:31:28.321Z,73.41
2023-07-24T10:33:58.385Z,71.25
2023-07-24T10:36:26.201Z,72.51
2023-07-24T10:38:57.946Z,73.31
2023-07-24T10:41:38.851Z,72.77
2023-07-24T10:44:07.217Z,75.28
2023-07-24T10:46:44.122Z,75.20
2023-07-24T10:49:13.326Z,77.05
2023-07-24T10:51:41.294Z,78.39
2023-07-24T10:54:09.372Z,77.12
2023-07-24T10:56:39.113Z,78.95
2023-07-24T10:59:07.669Z,79.60
2023-07-24T11:01:36.356Z,80.18
2023-07-24T11:04:05.198Z,80.16
2023-07-24T11:06:33.277Z,81.51
2023-07-24T11:09:02.162Z,82.43
2023-07-24T11:11:37.278Z,82.80
2023-07-24T11:14:06.136Z,82.08
2023-07-24T11:16:35.209Z,82.54
2023-07-24T11:19:03.181Z,83.43
2023-07-24T11:21:32.195Z,83.73
2023-07-24T11:24:01.076Z,83.92
2023-07-24T11:26:29.696Z,85.49
2023-07-24T11:28:57.629Z,87.15
2023-07-24T11:31:25.516Z,87.98
2023-07-24T11:33:55.539Z,88.12
2023-07-24T11:36:24.319Z,88.59
2023-07-24T11:38:52.531Z,89.06
2023-07-24T11:41:20.589Z,90.37
2023-07-24T11:43:52.480Z,90.73
2023-07-24T11:46:33.639Z,90.54
2023-07-24T11:49:01.633Z,91.29
2023-07-24T11:51:30.574Z,91.39
2023-07-24T11:54:13.233Z,92.04
2023-07-24T11:56:41.640Z,91.76
2023-07-24T11:59:16.807Z,91.59
2023-07-24T12:01:49.912Z,91.79
2023-07-24T12:04:19.279Z,92.35
2023-07-24T12:06:47.771Z,92.10
2023-07-24T12:09:15.808Z,91.91
2023-07-24T12:11:47.287Z,91.57
2023-07-24T12:14:16.237Z,92.29
2023-07-24T12:16:45.017Z,91.72
2023-07-24T12:19:13.182Z,91.61
2023-07-24T12:21:41.488Z,91.18
2023-07-24T12:24:09.765Z,89.00
2023-07-24T12:26:38.030Z,88.93
2023-07-24T12:29:05.863Z,85.82
2023-07-24T12:31:34.396Z,85.54
2023-07-24T12:34:02.817Z,84.04
2023-07-24T12:36:30.697Z,81.67
2023-07-24T12:38:58.821Z,79.22
2023-07-24T12:41:26.580Z,79.33
2023-07-24T12:43:54.790Z,78.86
2023-07-24T12:46:22.897Z,80.95
2023-07-24T12:48:50.815Z,81.49
2023-07-24T12:51:18.966Z,81.23
2023-07-24T12:53:58.813Z,81.72
2023-07-24T12:56:34.881Z,82.35
2023-07-24T12:59:04.669Z,81.09
2023-07-24T13:01:32.610Z,80.26
2023-07-24T13:04:01.069Z,80.21
2023-07-24T13:06:29.309Z,79.48
2023-07-24T13:08:57.852Z,77.96
2023-07-24T13:11:26.280Z,78.32
2023-07-24T13:13:54.150Z,79.07
2023-07-24T13:16:23.418Z,79.86
2023-07-24T13:18:51.622Z,81.26
2023-07-24T13:21:19.762Z,80.89
2023-07-24T13:23:47.901Z,80.07
2023-07-24T13:26:17.686Z,79.58
2023-07-24T13:28:45.752Z,77.80
2023-07-24T13:31:23.385Z,79.24
2023-07-24T13:33:51.609Z,75.94
2023-07-24T13:36:19.687Z,75.56
2023-07-24T13:38:47.712Z,76.16
2023-07-24T13:41:15.814Z,77.88
2023-07-24T13:43:44.296Z,76.04
2023-07-24T13:46:12.650Z,73.90
2023-07-24T13:48:41.010Z,76.32
2023-07-24T13:51:09.281Z,77.55
2023-07-24T13:53:38.249Z,77.53
2023-07-24T13:56:07.443Z,75.98
2023-07-24T13:58:35.894Z,79.39
2023-07-24T14:01:03.857Z,77.63
2023-07-24T14:03:31.958Z,79.16
2023-07-24T14:06:00.118Z,79.44
2023-07-24T14:08:28.082Z,82.68
2023-07-24T14:10:56.097Z,84.43
2023-07-24T14:13:24.433Z,82.84
2023-07-24T14:15:52.760Z,81.63
2023-07-24T14:18:21.246Z,80.10
2023-07-24T14:20:49.395Z,83.72
2023-07-24T14:23:17.364Z,82.54
2023-07-24T14:25:45.436Z,77.22
2023-07-24T14:28:13.436Z,77.22
2023-07-24T14:30:41.147Z,79.06
2023-07-24T14:33:09.639Z,80.22
2023-07-24T14:35:38.131Z,78.39
2023-07-24T14:38:06.176Z,81.78
2023-07-24T14:40:34.242Z,83.39
2023-07-24T14:43:04.772Z,77.95
2023-07-24T14:45:34.807Z,78.83
2023-07-24T14:48:02.983Z,81.20
2023-07-24T14:50:31.325Z,81.02
2023-07-24T14:52:59.353Z,79.90
2023-07-24T14:55:27.416Z,76.86
2023-07-24T14:57:55.552Z,74.04
2023-07-24T15:00:23.613Z,69.43
2023-07-24T15:02:51.597Z,73.48
2023-07-24T15:05:19.699Z,70.68
2023-07-24T15:07:48.412Z,75.84
2023-07-24T15:10:16.813Z,73.83
2023-07-24T15:12:44.646Z,73.55
2023-07-24T15:15:12.552Z,71.83
2023-07-24T15:17:40.723Z,71.27
2023-07-24T15:20:09.848Z,70.20
2023-07-24T15:22:37.747Z,68.78
2023-07-24T15:25:06.505Z,72.68
2023-07-24T15:27:34.647Z,70.45
2023-07-24T15:30:03.126Z,74.04
2023-07-24T15:32:31.167Z,71.85
2023-07-24T15:35:01.621Z,76.26
2023-07-24T15:37:33.062Z,77.10
2023-07-24T15:40:01.254Z,76.50
2023-07-24T15:42:29.112Z,74.83
2023-07-24T15:44:57.733Z,75.59
2023-07-24T15:47:27.444Z,74.89
2023-07-24T15:49:55.500Z,74.13
2023-07-24T15:52:23.654Z,72.15
2023-07-24T15:54:51.727Z,74.35
2023-07-24T15:57:19.898Z,71.18
2023-07-24T15:59:47.805Z,69.42
2023-07-24T16:02:16.210Z,69.40
2023-07-24T16:04:45.669Z,70.90
2023-07-24T16:07:13.830Z,74.25
2023-07-24T16:09:41.722Z,74.51
2023-07-24T16:12:09.908Z,77.61
2023-07-24T16:14:37.828Z,75.74
2023-07-24T16:17:08.961Z,76.38
2023-07-24T16:19:37.065Z,77.04
2023-07-24T16:22:05.481Z,76.44
2023-07-24T16:24:33.401Z,76.99
2023-07-24T16:27:04.453Z,75.59
2023-07-24T16:29:33.671Z,75.75
2023-07-24T16:32:01.495Z,71.65
2023-07-24T16:34:29.545Z,68.38
2023-07-24T16:36:57.516Z,69.43
2023-07-24T16:39:26.213Z,68.71
2023-07-24T16:41:54.011Z,67.16
2023-07-24T16:44:33.229Z,66.25
2023-07-24T16:49:36.253Z,71.41
2023-07-24T16:52:06.573Z,68.92
2023-07-24T16:54:37.030Z,69.08
2023-07-24T16:57:05.738Z,71.45
2023-07-24T16:59:33.638Z,70.43
2023-07-24T17:02:01.573Z,72.15
2023-07-24T17:04:29.447Z,71.59
2023-07-24T17:06:57.239Z,73.27
2023-07-24T17:09:25.280Z,73.49
2023-07-24T17:11:53.297Z,71.48
2023-07-24T17:14:21.514Z,74.14
2023-07-24T17:16:49.883Z,73.57
2023-07-24T17:19:20.632Z,74.47
2023-07-24T17:21:49.907Z,73.99
2023-07-24T17:24:17.894Z,73.13
2023-07-24T17:26:45.831Z,73.00
2023-07-24T17:29:13.725Z,74.08
2023-07-24T17:31:43.879Z,73.94
2023-07-24T17:34:11.900Z,73.89
2023-07-24T17:36:39.719Z,75.09
2023-07-24T17:39:07.592Z,75.81
2023-07-24T17:41:35.967Z,75.02
2023-07-24T17:44:04.033Z,76.11
2023-07-24T17:46:32.096Z,76.13
2023-07-24T17:48:59.823Z,76.35
2023-07-24T17:51:28.220Z,76.91
2023-07-24T17:53:58.259Z,77.42
2023-07-24T17:56:26.602Z,77.83
2023-07-24T17:58:54.471Z,78.42
2023-07-24T18:01:25.424Z,77.89
2023-07-24T18:03:53.474Z,78.50
2023-07-24T18:06:21.614Z,78.10
2023-07-24T18:08:49.717Z,78.82
2023-07-24T18:11:17.668Z,79.16
2023-07-24T18:13:45.618Z,80.31
2023-07-24T18:16:14.090Z,79.72
2023-07-24T18:18:42.167Z,81.08
2023-07-24T18:21:11.225Z,81.79
2023-07-24T18:23:39.501Z,81.65
2023-07-24T18:26:07.825Z,81.72
2023-07-24T18:28:35.861Z,82.44
2023-07-24T18:31:04.188Z,83.90
2023-07-24T18:33:32.387Z,83.84
2023-07-24T18:36:00.582Z,83.25
2023-07-24T18:38:28.611Z,83.66
2023-07-24T18:40:56.564Z,84.17
2023-07-24T18:43:24.695Z,84.16
2023-07-24T18:45:52.924Z,85.17
2023-07-24T18:48:20.913Z,84.64
2023-07-24T18:50:50.849Z,84.69
2023-07-24T18:53:19.048Z,84.77
2023-07-24T18:55:46.798Z,84.97
2023-07-24T18:58:15.290Z,85.29
2023-07-24T19:00:43.240Z,85.60
2023-07-24T19:03:12.389Z,85.15
2023-07-24T19:05:40.361Z,85.15
2023-07-24T19:08:08.348Z,85.24
2023-07-24T19:10:36.294Z,86.10
2023-07-24T19:13:04.313Z,86.42
2023-07-24T19:15:32.366Z,86.57
2023-07-24T19:18:00.429Z,86.41
2023-07-24T19:20:30.958Z,86.57
2023-07-24T19:22:59.124Z,86.62
2023-07-24T19:25:27.165Z,86.66
2023-07-24T19:27:55.087Z,87.48
2023-07-24T19:30:23.162Z,87.83
2023-07-24T19:32:51.940Z,88.43
2023-07-24T19:35:21.255Z,88.77
2023-07-24T19:37:49.351Z,88.37
2023-07-24T19:40:17.709Z,88.27
2023-07-24T19:42:46.358Z,88.21
2023-07-24T19:45:15.192Z,88.77
2023-07-24T19:47:43.478Z,88.92
2023-07-24T19:50:11.890Z,89.07
2023-07-24T19:52:39.845Z,88.42
2023-07-24T19:55:10.374Z,88.74
2023-07-24T19:57:40.156Z,89.17
2023-07-24T20:00:09.487Z,89.77
2023-07-24T20:02:37.951Z,89.73
2023-07-24T20:05:07.077Z,89.90
2023-07-24T20:07:35.638Z,90.31
2023-07-24T20:10:04.109Z,89.90
2023-07-24T20:12:32.160Z,90.11
2023-07-24T20:15:00.296Z,90.22
2023-07-24T20:17:28.248Z,89.64
2023-07-24T20:19:56.430Z,89.89
2023-07-24T20:22:24.590Z,89.61
2023-07-24T20:24:52.799Z,90.04
2023-07-24T20:27:21.078Z,89.98
2023-07-24T20:29:50.077Z,89.45
2023-07-24T20:32:18.046Z,89.90
2023-07-24T20:34:45.985Z,89.38
2023-07-24T20:37:14.147Z,89.21
2023-07-24T20:39:43.032Z,88.54
2023-07-24T20:42:11.397Z,88.74
2023-07-24T20:44:39.598Z,89.04
2023-07-24T20:47:09.741Z,89.63
2023-07-24T20:49:38.030Z,89.71
2023-07-24T20:52:07.354Z,89.81
2023-07-24T20:54:35.774Z,88.96
2023-07-24T20:57:04.347Z,88.68
2023-07-24T20:59:33.172Z,88.00
2023-07-24T21:02:01.528Z,87.56
2023-07-24T21:04:29.352Z,86.98
2023-07-24T21:06:57.658Z,87.20
2023-07-24T21:09:25.799Z,86.23
2023-07-24T21:11:54.098Z,85.93
2023-07-24T21:14:22.756Z,86.43
2023-07-24T21:16:51.094Z,86.28
2023-07-24T21:19:18.883Z,86.40
2023-07-24T21:21:47.208Z,86.77
2023-07-24T21:24:15.417Z,87.14
2023-07-24T21:26:43.915Z,87.52
2023-07-24T21:29:11.736Z,87.23
2023-07-24T21:31:40.292Z,86.81
2023-07-24T21:34:08.350Z,87.27
2023-07-24T21:36:36.968Z,87.26
2023-07-24T21:39:05.011Z,87.93
2023-07-24T21:41:33.708Z,87.55
2023-07-24T21:44:01.894Z,87.33
2023-07-24T21:46:30.043Z,87.33
2023-07-24T21:48:58.038Z,87.08
2023-07-24T21:51:26.376Z,85.96
2023-07-24T21:53:54.259Z,86.66
2023-07-24T21:56:22.202Z,86.31
2023-07-24T21:58:50.009Z,85.78
2023-07-24T22:01:21.438Z,86.54
2023-07-24T22:03:49.672Z,85.85
2023-07-24T22:06:17.442Z,85.83
2023-07-24T22:08:45.683Z,85.64
2023-07-24T22:11:16.896Z,85.65
2023-07-24T22:13:44.998Z,85.79
2023-07-24T22:16:13.583Z,86.66
2023-07-24T22:18:41.625Z,86.23
2023-07-24T22:21:10.617Z,86.85
2023-07-24T22:23:38.670Z,87.08
2023-07-24T22:26:06.693Z,87.62
2023-07-24T22:28:34.713Z,86.66
2023-07-24T22:31:13.126Z,87.41
2023-07-24T22:33:41.330Z,87.80
2023-07-24T22:36:09.349Z,87.30
2023-07-24T22:38:37.301Z,87.61
2023-07-24T22:41:13.459Z,87.82
2023-07-24T22:43:41.753Z,87.93
2023-07-24T22:46:10.143Z,88.68
2023-07-24T22:48:38.336Z,88.66
2023-07-24T22:51:06.167Z,88.84
2023-07-24T22:53:33.965Z,89.07
2023-07-24T22:56:01.941Z,89.22
2023-07-24T22:58:29.925Z,89.17
2023-07-24T23:00:57.972Z,89.10
2023-07-24T23:03:26.296Z,89.71
2023-07-24T23:05:54.211Z,89.66
2023-07-24T23:08:21.978Z,89.46
2023-07-24T23:10:50.896Z,89.81
2023-07-24T23:13:18.864Z,88.85
2023-07-24T23:15:46.661Z,88.90
2023-07-24T23:18:14.427Z,89.32
2023-07-24T23:20:42.505Z,89.47
2023-07-24T23:23:10.407Z,89.74
2023-07-24T23:25:38.400Z,89.95
2023-07-24T23:28:06.250Z,89.97
2023-07-24T23:30:44.061Z,89.67
2023-07-24T23:33:12.073Z,89.16
2023-07-24T23:35:40.289Z,89.15
2023-07-24T23:38:08.269Z,89.54
2023-07-24T23:40:36.347Z,89.41
2023-07-24T23:43:04.651Z,89.41
2023-07-24T23:45:36.861Z,89.34
2023-07-24T23:48:05.909Z,89.24
2023-07-24T23:50:38.482Z,89.69
2023-07-24T23:53:07.733Z,89.11
2023-07-24T23:55:35.736Z,88.85
2023-07-24T23:58:04.154Z,89.43
